Time;durP1;ratioP1;P1;durP2;ratioP2;P2;SDS_P1;SDS_P2;PMS_P1;PMS_P2;Temp;Humidity;BMP_temperature;BMP_pressure;BME280_temperature;BME280_humidity;BME280_pressure;Samples;Min_cycle;Max_cycle;Signal;HPM_P1;HPM_P2
2021/12/26 00:01:04;;;;;;;8.23;5.05;;;2.10;1.00;;;;;;5057159;28;20184;-75
2021/12/26 00:04:07;;;;;;;5.07;4.25;;;2.10;1.00;;;;;;5056412;28;20217;-75
2021/12/26 00:07:07;;;;;;;7.88;4.90;;;2.10;1.00;;;;;;5055497;28;20599;-75
2021/12/26 00:09:33;;;;;;;7.47;3.90;;;2.10;1.00;;;;;;5056650;28;20837;-75
2021/12/26 00:12:18;;;;;;;8.77;4.95;;;2.00;1.00;;;;;;5056209;28;20188;-76
2021/12/26 00:14:52;;;;;;;7.88;5.07;;;1.90;1.00;;;;;;5056703;28;20187;-75
2021/12/26 00:17:18;;;;;;;7.60;4.43;;;1.90;1.00;;;;;;5056029;28;20188;-75
2021/12/26 00:23:06;;;;;;;5.30;4.30;;;2.10;1.00;;;;;;5056128;28;20689;-76
2021/12/26 00:25:44;;;;;;;7.82;5.15;;;2.10;1.00;;;;;;5055816;28;20219;-75
2021/12/26 00:32:01;;;;;;;6.78;5.00;;;2.10;1.00;;;;;;5046382;28;20210;-75
2021/12/26 00:34:31;;;;;;;7.93;4.95;;;2.10;1.00;;;;;;5038496;28;20199;-75
2021/12/26 00:37:01;;;;;;;5.00;4.28;;;2.10;1.00;;;;;;5055644;28;20187;-75
2021/12/26 00:39:27;;;;;;;7.63;4.97;;;2.10;1.00;;;;;;5055884;28;20194;-75
2021/12/26 00:41:53;;;;;;;5.90;4.67;;;2.10;1.00;;;;;;5055720;28;20191;-75
2021/12/26 00:44:49;;;;;;;5.83;4.63;;;2.20;1.00;;;;;;5055583;28;20163;-75
2021/12/26 00:47:29;;;;;;;10.05;4.47;;;2.30;1.00;;;;;;5055892;28;20238;-75
2021/12/26 00:49:55;;;;;;;6.78;4.43;;;2.30;1.00;;;;;;5053712;28;20222;-75
2021/12/26 00:52:21;;;;;;;6.03;4.85;;;2.30;1.00;;;;;;5042210;28;20172;-75
2021/12/26 00:54:47;;;;;;;4.83;4.10;;;2.30;1.00;;;;;;5046541;28;20508;-75
2021/12/26 00:57:31;;;;;;;8.13;4.60;;;2.30;1.00;;;;;;5054937;28;20501;-75
2021/12/26 00:59:57;;;;;;;7.25;4.70;;;2.20;1.00;;;;;;5055583;28;20179;-75
2021/12/26 01:02:25;;;;;;;8.13;5.07;;;2.20;1.00;;;;;;5055706;28;20688;-75
2021/12/26 01:04:51;;;;;;;6.70;4.60;;;2.00;1.00;;;;;;5055535;28;20179;-75
2021/12/26 01:07:45;;;;;;;9.40;5.10;;;1.90;1.00;;;;;;5055371;28;20218;-75
2021/12/26 01:10:38;;;;;;;7.38;5.45;;;1.90;1.00;;;;;;5051621;28;20984;-75
2021/12/26 01:13:25;;;;;;;8.50;5.30;;;2.00;1.00;;;;;;5054872;28;20842;-75
2021/12/26 01:16:19;;;;;;;8.52;5.32;;;2.10;1.00;;;;;;5055479;28;20176;-75
2021/12/26 01:18:55;;;;;;;9.57;5.47;;;2.10;1.00;;;;;;5035158;28;20175;-76
2021/12/26 01:24:44;;;;;;;6.38;4.95;;;2.10;1.00;;;;;;5054413;28;20267;-75
2021/12/26 01:27:26;;;;;;;8.10;5.07;;;2.00;1.00;;;;;;5054487;28;20208;-75
2021/12/26 01:29:53;;;;;;;4.95;4.45;;;2.10;1.00;;;;;;5055037;28;20190;-75
2021/12/26 01:32:26;;;;;;;8.20;4.93;;;2.20;1.00;;;;;;5055306;28;20237;-74
2021/12/26 01:34:52;;;;;;;9.80;5.00;;;2.20;1.00;;;;;;5054607;28;20176;-75
2021/12/26 01:37:18;;;;;;;7.33;5.00;;;2.20;1.00;;;;;;5054614;28;20239;-76
2021/12/26 01:39:44;;;;;;;6.50;5.07;;;2.20;1.00;;;;;;5054303;28;20188;-75
2021/12/26 01:42:19;;;;;;;6.83;4.87;;;2.10;1.00;;;;;;5054807;28;20430;-75
2021/12/26 01:45:02;;;;;;;8.25;5.43;;;2.20;1.00;;;;;;5054567;28;20448;-74
2021/12/26 01:47:31;;;;;;;6.57;4.60;;;2.20;1.00;;;;;;5054431;28;20203;-74
2021/12/26 01:50:01;;;;;;;7.35;5.07;;;2.20;1.00;;;;;;5054246;28;20683;-75
2021/12/26 01:52:37;;;;;;;6.00;4.45;;;2.20;1.00;;;;;;5054363;28;20178;-74
2021/12/26 01:58:23;;;;;;;6.18;4.68;;;2.20;1.00;;;;;;5022094;28;20225;-75
2021/12/26 02:01:20;;;;;;;5.80;4.38;;;2.20;1.00;;;;;;5032662;28;20192;-74
2021/12/26 02:03:50;;;;;;;6.03;4.95;;;2.20;1.00;;;;;;5031120;28;20183;-75
2021/12/26 02:06:21;;;;;;;8.40;5.35;;;2.20;1.00;;;;;;5032111;28;20188;-75
2021/12/26 02:09:01;;;;;;;7.72;4.65;;;2.20;1.00;;;;;;5031355;28;20212;-75
2021/12/26 02:12:01;;;;;;;7.22;4.78;;;2.10;1.00;;;;;;5032366;28;20172;-75
2021/12/26 02:14:55;;;;;;;11.50;5.63;;;2.10;1.00;;;;;;5031406;28;20275;-75
2021/12/26 02:17:21;;;;;;;6.55;4.90;;;2.20;1.00;;;;;;5032331;28;20246;-75
2021/12/26 02:20:19;;;;;;;9.13;5.70;;;2.20;1.00;;;;;;5031958;28;20192;-75
2021/12/26 02:23:41;;;;;;;5.85;4.75;;;2.20;1.00;;;;;;4992708;28;20185;-75
2021/12/26 02:30:12;;;;;;;7.68;4.97;;;2.30;1.00;;;;;;4992244;28;20223;-75
2021/12/26 02:32:38;;;;;;;8.50;5.25;;;2.30;1.00;;;;;;4992991;28;20197;-75
2021/12/26 02:35:32;;;;;;;10.23;5.45;;;2.30;1.00;;;;;;5012138;28;20360;-75
2021/12/26 02:37:58;;;;;;;11.77;6.13;;;2.30;1.00;;;;;;5011928;28;20846;-75
2021/12/26 02:40:31;;;;;;;5.70;4.10;;;2.10;1.00;;;;;;5011766;28;20197;-75
2021/12/26 02:43:02;;;;;;;8.93;4.93;;;2.10;1.00;;;;;;5011375;28;20446;-75
2021/12/26 02:45:37;;;;;;;6.18;5.20;;;2.10;1.00;;;;;;5011760;28;20185;-75
2021/12/26 02:48:07;;;;;;;8.75;6.35;;;2.10;1.00;;;;;;5001436;28;20200;-75
2021/12/26 02:50:32;;;;;;;7.93;5.35;;;2.00;1.00;;;;;;4992460;28;20614;-75
2021/12/26 02:53:20;;;;;;;9.37;4.97;;;2.10;1.00;;;;;;5011699;28;20189;-75
2021/12/26 02:55:51;;;;;;;6.47;4.65;;;2.10;1.00;;;;;;5005653;28;20220;-75
2021/12/26 02:58:20;;;;;;;8.63;5.40;;;2.00;1.00;;;;;;5017710;28;20582;-75
2021/12/26 03:00:54;;;;;;;7.90;5.05;;;2.10;1.00;;;;;;5053151;28;20179;-75
2021/12/26 03:03:25;;;;;;;9.35;5.80;;;2.10;1.00;;;;;;5052067;28;20516;-75
2021/12/26 03:06:02;;;;;;;8.63;5.60;;;2.00;1.00;;;;;;5053714;28;20210;-75
2021/12/26 03:08:29;;;;;;;11.88;5.75;;;2.10;1.00;;;;;;5047950;28;20203;-75
2021/12/26 03:10:56;;;;;;;7.10;5.10;;;2.10;1.00;;;;;;5053590;28;20880;-75
2021/12/26 03:13:31;;;;;;;6.95;5.78;;;2.20;1.00;;;;;;5050745;28;20171;-75
2021/12/26 03:15:57;;;;;;;8.15;5.32;;;2.20;1.00;;;;;;5042803;28;20592;-75
2021/12/26 03:18:37;;;;;;;7.38;5.13;;;2.20;1.00;;;;;;5054042;28;20179;-75
2021/12/26 03:21:07;;;;;;;8.25;4.82;;;2.30;1.00;;;;;;5057431;28;20183;-75
2021/12/26 03:23:33;;;;;;;9.82;5.50;;;2.30;1.00;;;;;;5057518;28;20529;-75
2021/12/26 03:26:06;;;;;;;7.10;5.50;;;2.20;1.00;;;;;;5057299;28;20242;-75
2021/12/26 03:28:32;;;;;;;10.52;5.60;;;2.20;1.00;;;;;;5055473;28;20210;-75
2021/12/26 03:31:02;;;;;;;9.10;6.03;;;2.30;1.00;;;;;;5056784;28;20176;-75
2021/12/26 03:34:02;;;;;;;9.50;5.30;;;2.30;1.00;;;;;;5045321;28;20931;-75
2021/12/26 03:36:31;;;;;;;8.98;5.25;;;2.20;1.00;;;;;;5050533;28;20539;-75
2021/12/26 03:39:07;;;;;;;7.60;5.40;;;2.30;1.00;;;;;;5056684;28;20182;-75
2021/12/26 03:41:37;;;;;;;8.00;5.40;;;2.20;1.00;;;;;;5045007;28;20536;-75
2021/12/26 03:44:03;;;;;;;6.97;5.00;;;2.10;1.00;;;;;;5056620;28;20572;-75
2021/12/26 03:46:45;;;;;;;7.10;5.18;;;2.20;1.00;;;;;;5056865;28;20179;-75
2021/12/26 03:49:11;;;;;;;10.43;6.47;;;2.20;1.00;;;;;;5040271;28;20179;-75
2021/12/26 03:51:37;;;;;;;7.60;5.17;;;2.20;1.00;;;;;;5056879;28;20194;-75
2021/12/26 03:54:09;;;;;;;8.37;5.20;;;2.30;1.00;;;;;;5056351;28;20429;-75
2021/12/26 03:56:55;;;;;;;8.77;5.40;;;2.30;1.00;;;;;;5056985;28;20433;-75
2021/12/26 03:59:49;;;;;;;7.38;5.18;;;2.40;1.00;;;;;;5054980;28;20183;-75
2021/12/26 04:02:19;;;;;;;8.88;5.80;;;2.30;1.00;;;;;;5056960;28;20298;-75
2021/12/26 04:05:01;;;;;;;8.65;5.70;;;2.30;1.00;;;;;;5048756;28;20176;-75
2021/12/26 04:07:31;;;;;;;7.40;5.28;;;2.30;1.00;;;;;;5055343;28;20555;-75
2021/12/26 04:09:57;;;;;;;9.23;5.80;;;2.30;1.00;;;;;;5056359;28;20206;-75
2021/12/26 04:12:22;;;;;;;7.93;5.33;;;2.30;1.00;;;;;;5056306;28;20160;-75
2021/12/26 04:18:19;;;;;;;7.00;4.93;;;2.20;1.00;;;;;;5056063;28;20175;-75
2021/12/26 04:20:46;;;;;;;8.82;5.03;;;2.30;1.00;;;;;;5056312;28;20201;-75
2021/12/26 04:23:37;;;;;;;11.45;5.97;;;2.30;1.00;;;;;;5056336;28;20184;-75
2021/12/26 04:26:03;;;;;;;5.85;5.03;;;2.30;1.00;;;;;;5055720;28;20199;-75
2021/12/26 04:28:31;;;;;;;8.07;5.17;;;2.30;1.00;;;;;;5056132;28;20667;-75
2021/12/26 04:31:37;;;;;;;8.98;5.30;;;2.20;1.00;;;;;;5055342;28;20429;-75
2021/12/26 04:34:07;;;;;;;7.75;5.43;;;2.30;1.00;;;;;;5056370;28;20209;-75
2021/12/26 04:36:37;;;;;;;8.60;6.18;;;2.30;1.00;;;;;;5036115;28;20163;-75
2021/12/26 04:39:19;;;;;;;7.65;5.35;;;2.30;1.00;;;;;;5055763;28;20188;-75
2021/12/26 04:41:49;;;;;;;9.38;5.63;;;2.30;1.00;;;;;;5055337;28;20191;-75
2021/12/26 04:44:15;;;;;;;7.90;5.13;;;2.30;1.00;;;;;;5055711;28;20195;-75
2021/12/26 04:46:41;;;;;;;9.87;5.67;;;2.30;1.00;;;;;;5055315;28;20523;-75
2021/12/26 04:49:25;;;;;;;8.83;5.30;;;2.30;1.00;;;;;;5042451;28;20180;-75
2021/12/26 04:51:52;;;;;;;6.30;4.95;;;2.30;1.00;;;;;;5056036;28;20499;-75
2021/12/26 04:54:43;;;;;;;8.97;5.53;;;2.30;1.00;;;;;;5055278;28;20183;-75
2021/12/26 04:57:49;;;;;;;9.13;5.60;;;2.30;1.00;;;;;;5052063;28;20190;-75
2021/12/26 05:00:37;;;;;;;11.95;5.32;;;2.30;1.00;;;;;;5054770;28;20649;-75
2021/12/26 05:03:08;;;;;;;11.90;5.25;;;2.30;1.00;;;;;;5056152;28;20184;-75
2021/12/26 05:05:35;;;;;;;8.80;6.00;;;2.20;1.00;;;;;;5055576;28;20187;-75
2021/12/26 05:08:07;;;;;;;7.43;5.15;;;2.10;1.00;;;;;;5055475;28;20206;-75
2021/12/26 05:10:37;;;;;;;6.80;4.97;;;2.10;1.00;;;;;;5052930;28;20217;-75
2021/12/26 05:13:37;;;;;;;8.20;6.22;;;2.10;1.00;;;;;;5055106;28;20180;-75
2021/12/26 05:16:25;;;;;;;8.18;5.75;;;2.10;1.00;;;;;;5054937;28;20175;-75
2021/12/26 05:19:01;;;;;;;7.25;5.45;;;2.10;1.00;;;;;;5043227;28;20179;-75
2021/12/26 05:21:31;;;;;;;10.85;5.60;;;2.10;1.00;;;;;;5055002;28;20566;-75
2021/12/26 05:24:13;;;;;;;7.95;5.50;;;2.20;1.00;;;;;;5054900;28;20190;-75
2021/12/26 05:26:50;;;;;;;10.73;4.70;;;2.00;1.00;;;;;;5054554;28;20588;-75
2021/12/26 05:29:25;;;;;;;8.00;5.50;;;2.20;1.00;;;;;;5054798;28;20171;-75
2021/12/26 05:38:51;;;;;;;8.30;5.60;;;2.30;1.00;;;;;;5054854;28;20191;-75
2021/12/26 05:41:32;;;;;;;8.27;5.45;;;2.30;1.00;;;;;;5041369;28;20221;-75
2021/12/26 05:44:13;;;;;;;11.75;5.50;;;2.30;1.00;;;;;;5054433;28;20192;-75
2021/12/26 05:47:25;;;;;;;11.45;6.30;;;2.40;1.00;;;;;;5054520;28;20307;-75
2021/12/26 05:49:55;;;;;;;9.75;5.22;;;2.30;1.00;;;;;;5042881;28;20160;-75
2021/12/26 05:52:21;;;;;;;10.68;6.20;;;2.30;1.00;;;;;;5054489;28;20229;-75
2021/12/26 05:54:50;;;;;;;9.70;6.15;;;2.30;1.00;;;;;;5054440;28;20175;-75
2021/12/26 05:57:25;;;;;;;7.40;5.53;;;2.40;1.00;;;;;;5050252;28;20539;-75
2021/12/26 05:59:51;;;;;;;9.80;6.18;;;2.30;1.00;;;;;;5054222;28;20245;-75
2021/12/26 06:02:19;;;;;;;10.87;5.57;;;2.40;1.00;;;;;;5054351;28;20192;-75
2021/12/26 06:05:13;;;;;;;9.18;5.25;;;2.40;1.00;;;;;;5054639;28;20418;-75
2021/12/26 06:07:39;;;;;;;13.45;5.90;;;2.40;1.00;;;;;;5042435;28;20203;-74
2021/12/26 06:10:06;;;;;;;9.02;5.47;;;2.40;1.00;;;;;;5053887;28;20309;-75
2021/12/26 06:12:37;;;;;;;9.68;6.05;;;2.40;1.00;;;;;;5054117;28;20254;-75
2021/12/26 06:15:04;;;;;;;9.65;5.95;;;2.40;1.00;;;;;;5043581;28;20180;-75
2021/12/26 06:17:30;;;;;;;7.85;5.57;;;2.40;1.00;;;;;;5053805;28;20266;-75
2021/12/26 06:20:03;;;;;;;7.40;5.53;;;2.40;1.00;;;;;;5051122;28;20218;-75
2021/12/26 06:22:29;;;;;;;9.68;5.75;;;2.40;1.00;;;;;;5053828;28;20521;-74
2021/12/26 06:24:55;;;;;;;6.60;5.23;;;2.50;1.00;;;;;;5053758;28;20227;-75
2021/12/26 06:27:20;;;;;;;7.17;5.10;;;2.50;1.00;;;;;;5053913;28;20203;-75
2021/12/26 06:29:46;;;;;;;7.97;5.17;;;2.50;1.00;;;;;;5053987;28;20203;-75
2021/12/26 06:32:13;;;;;;;6.83;5.43;;;2.50;1.00;;;;;;5053958;28;20152;-75
2021/12/26 06:35:31;;;;;;;7.45;5.18;;;2.30;1.00;;;;;;5053998;28;20218;-76
2021/12/26 06:38:51;;;;;;;8.57;5.70;;;2.40;1.00;;;;;;5053624;28;20515;-77
2021/12/26 06:41:16;;;;;;;8.63;5.80;;;2.30;1.00;;;;;;5053218;28;20651;-78
2021/12/26 06:47:31;;;;;;;7.00;4.93;;;2.30;1.00;;;;;;5033397;28;20270;-77
2021/12/26 06:50:02;;;;;;;10.10;6.22;;;2.30;1.00;;;;;;5043006;28;20192;-76
2021/12/26 06:52:49;;;;;;;10.13;6.45;;;2.30;1.00;;;;;;5039793;28;20202;-75
2021/12/26 06:55:15;;;;;;;9.48;5.63;;;2.30;1.00;;;;;;5059755;28;20731;-75
2021/12/26 06:58:07;;;;;;;9.00;5.97;;;2.20;1.00;;;;;;5060244;28;20189;-75
2021/12/26 07:00:34;;;;;;;8.77;5.88;;;2.10;1.00;;;;;;5059984;28;20512;-74
2021/12/26 07:03:19;;;;;;;10.65;5.72;;;2.30;1.00;;;;;;5059857;28;20650;-78
2021/12/26 07:05:49;;;;;;;7.82;5.70;;;2.30;1.00;;;;;;5060480;28;20626;-75
2021/12/26 07:08:15;;;;;;;9.50;5.32;;;2.30;1.00;;;;;;5060005;28;20302;-75
2021/12/26 07:10:43;;;;;;;8.57;5.27;;;2.30;1.00;;;;;;5059764;28;20262;-75
2021/12/26 07:13:09;;;;;;;7.15;5.28;;;2.30;1.00;;;;;;5059716;28;20450;-75
2021/12/26 07:15:37;;;;;;;10.13;5.70;;;2.30;1.00;;;;;;5060318;28;20222;-75
2021/12/26 07:18:07;;;;;;;9.00;5.78;;;2.40;1.00;;;;;;5059649;28;20432;-75
2021/12/26 07:20:34;;;;;;;10.23;5.80;;;2.30;1.00;;;;;;5060309;28;20175;-75
2021/12/26 07:22:59;;;;;;;6.07;4.70;;;2.30;1.00;;;;;;5052892;28;20579;-75
2021/12/26 07:25:26;;;;;;;7.90;5.83;;;2.30;1.00;;;;;;5059150;28;20266;-76
2021/12/26 07:27:56;;;;;;;6.25;5.13;;;2.30;1.00;;;;;;5058675;28;20452;-75
2021/12/26 07:30:24;;;;;;;7.43;5.53;;;2.30;1.00;;;;;;5057298;28;20199;-75
2021/12/26 07:32:52;;;;;;;6.87;5.20;;;2.30;1.00;;;;;;5056849;28;20191;-75
2021/12/26 07:35:18;;;;;;;8.70;5.65;;;2.20;1.00;;;;;;5058017;28;20413;-75
2021/12/26 07:37:49;;;;;;;10.57;5.70;;;2.20;1.00;;;;;;5059176;28;20178;-75
2021/12/26 07:40:27;;;;;;;10.30;5.75;;;2.30;1.00;;;;;;5049977;28;20179;-75
2021/12/26 07:43:19;;;;;;;11.50;6.38;;;2.20;1.00;;;;;;5059782;28;20213;-75
2021/12/26 07:46:07;;;;;;;7.60;5.40;;;2.20;1.00;;;;;;5059463;28;20182;-75
2021/12/26 07:48:44;;;;;;;9.35;5.65;;;2.30;1.00;;;;;;5055465;28;20573;-75
2021/12/26 07:51:09;;;;;;;8.15;6.10;;;2.40;1.00;;;;;;5046851;28;20202;-76
2021/12/26 07:53:43;;;;;;;8.47;5.50;;;2.40;1.00;;;;;;5059948;28;20192;-76
2021/12/26 07:56:09;;;;;;;7.35;5.45;;;2.40;1.00;;;;;;5047343;28;20266;-77
2021/12/26 07:58:43;;;;;;;8.17;5.43;;;2.30;1.00;;;;;;5059548;28;20306;-76
2021/12/26 08:01:13;;;;;;;9.43;5.57;;;2.40;1.00;;;;;;5059622;28;20665;-76
2021/12/26 08:03:39;;;;;;;6.97;4.70;;;2.40;1.00;;;;;;5058630;28;20237;-75
2021/12/26 08:06:18;;;;;;;10.27;5.57;;;2.30;1.00;;;;;;5056347;28;20179;-75
2021/12/26 08:08:56;;;;;;;8.27;5.35;;;2.40;1.00;;;;;;5055033;28;20199;-75
2021/12/26 08:11:32;;;;;;;8.18;5.68;;;2.40;1.00;;;;;;5056402;28;20171;-75
2021/12/26 08:14:19;;;;;;;8.18;5.97;;;2.50;1.00;;;;;;5039288;28;20175;-76
2021/12/26 08:17:01;;;;;;;7.22;5.50;;;2.50;1.00;;;;;;5053192;28;20180;-75
2021/12/26 08:19:43;;;;;;;8.02;5.47;;;2.50;1.00;;;;;;5056725;28;20622;-75
2021/12/26 08:22:09;;;;;;;6.47;5.10;;;2.50;1.00;;;;;;5056212;28;20164;-75
2021/12/26 08:24:35;;;;;;;6.60;4.77;;;2.50;1.00;;;;;;5048406;28;20184;-75
2021/12/26 08:27:02;;;;;;;11.60;4.10;;;2.60;1.00;;;;;;5055744;28;20249;-75
2021/12/26 08:29:37;;;;;;;9.85;5.25;;;2.60;1.00;;;;;;5041723;28;20263;-76
2021/12/26 08:32:04;;;;;;;9.18;5.63;;;2.60;1.00;;;;;;5047176;28;20163;-75
2021/12/26 08:34:49;;;;;;;12.43;5.03;;;2.70;1.00;;;;;;5052769;28;20175;-75
2021/12/26 08:37:19;;;;;;;6.05;4.93;;;2.70;1.00;;;;;;5048834;28;20194;-75
2021/12/26 08:39:49;;;;;;;12.93;6.20;;;2.80;1.00;;;;;;5056079;28;20195;-76
2021/12/26 08:42:37;;;;;;;7.72;5.07;;;2.80;1.00;;;;;;5055832;28;20521;-76
2021/12/26 08:45:03;;;;;;;6.22;4.85;;;2.80;1.00;;;;;;5043977;28;20181;-76
2021/12/26 08:47:29;;;;;;;10.40;5.70;;;2.70;1.00;;;;;;5051878;28;20199;-76
2021/12/26 08:50:02;;;;;;;10.10;6.33;;;2.80;1.00;;;;;;5052132;28;20205;-75
2021/12/26 08:52:27;;;;;;;6.72;5.22;;;2.90;1.00;;;;;;5040829;28;20442;-76
2021/12/26 08:54:53;;;;;;;8.10;5.40;;;3.00;1.00;;;;;;5053046;28;20179;-75
2021/12/26 08:57:19;;;;;;;8.27;5.87;;;3.00;1.00;;;;;;5052377;28;20217;-75
2021/12/26 09:00:32;;;;;;;10.35;6.20;;;3.00;1.00;;;;;;5048434;28;20497;-76
2021/12/26 09:02:58;;;;;;;9.02;4.93;;;3.00;1.00;;;;;;5047006;28;20168;-75
2021/12/26 09:05:24;;;;;;;9.73;4.70;;;3.00;1.00;;;;;;5041237;28;20576;-75
2021/12/26 09:07:50;;;;;;;7.50;4.20;;;3.10;1.00;;;;;;5054655;28;20540;-76
2021/12/26 09:10:16;;;;;;;7.65;4.43;;;3.10;1.00;;;;;;5049961;28;20736;-76
2021/12/26 09:12:55;;;;;;;6.63;4.10;;;3.10;1.00;;;;;;5043335;28;20252;-76
2021/12/26 09:15:22;;;;;;;8.35;4.60;;;3.20;1.00;;;;;;5041140;28;20410;-76
2021/12/26 09:17:50;;;;;;;10.13;4.65;;;3.20;1.00;;;;;;5054730;28;20194;-75
2021/12/26 09:20:19;;;;;;;6.35;4.97;;;3.20;1.00;;;;;;5054854;28;20251;-75
2021/12/26 09:22:45;;;;;;;6.70;4.30;;;3.20;1.00;;;;;;5051204;28;20570;-76
2021/12/26 09:25:12;;;;;;;11.13;5.70;;;3.20;1.00;;;;;;5053527;28;20187;-76
2021/12/26 09:27:49;;;;;;;6.68;4.72;;;3.10;1.00;;;;;;5040291;28;20192;-76
2021/12/26 09:30:16;;;;;;;7.20;4.40;;;;;;;;;;5054365;28;20184;-75
2021/12/26 09:32:50;;;;;;;6.75;4.28;;;3.20;1.00;;;;;;5051002;28;20164;-75
2021/12/26 09:35:19;;;;;;;7.32;4.70;;;3.30;1.00;;;;;;5051126;28;20524;-75
2021/12/26 09:41:08;;;;;;;9.60;4.93;;;3.40;1.00;;;;;;5054660;28;20245;-76
2021/12/26 09:43:34;;;;;;;12.65;4.78;;;3.40;1.00;;;;;;5053899;28;20172;-76
2021/12/26 09:45:59;;;;;;;7.43;4.57;;;3.40;1.00;;;;;;5054039;28;20186;-77
2021/12/26 09:48:43;;;;;;;10.20;5.50;;;3.30;1.00;;;;;;5053526;28;20195;-76
2021/12/26 09:51:09;;;;;;;4.43;3.65;;;;;;;;;;5041378;28;20195;-77
2021/12/26 09:53:42;;;;;;;10.82;4.88;;;3.40;1.00;;;;;;5046320;28;20347;-72
2021/12/26 09:56:08;;;;;;;4.75;4.25;;;3.40;1.00;;;;;;5054008;28;20151;-74
2021/12/26 09:58:34;;;;;;;5.50;4.45;;;3.50;1.00;;;;;;5053952;28;20721;-73
2021/12/26 10:01:07;;;;;;;8.80;4.65;;;3.50;1.00;;;;;;5038039;28;20611;-76
2021/12/26 10:03:37;;;;;;;6.72;4.63;;;3.50;1.00;;;;;;5054364;28;20245;-74
2021/12/26 10:06:19;;;;;;;6.60;4.57;;;3.50;1.00;;;;;;5054573;28;20536;-75
2021/12/26 10:09:08;;;;;;;7.53;4.05;;;3.30;1.00;;;;;;5053818;28;20199;-76
2021/12/26 10:12:01;;;;;;;9.38;5.03;;;3.30;1.00;;;;;;5054006;28;20191;-76
2021/12/26 10:15:13;;;;;;;6.78;4.57;;;3.30;1.00;;;;;;5054168;28;20160;-76
2021/12/26 10:17:43;;;;;;;8.10;5.43;;;3.30;1.00;;;;;;5038885;28;20165;-77
2021/12/26 10:20:10;;;;;;;7.25;4.65;;;3.60;1.00;;;;;;5052650;28;20180;-76
2021/12/26 10:22:49;;;;;;;5.55;3.90;;;3.60;1.00;;;;;;5053832;28;20808;-77
2021/12/26 10:25:35;;;;;;;8.90;4.97;;;3.60;1.00;;;;;;5053530;28;20270;-76
2021/12/26 10:28:12;;;;;;;7.43;4.50;;;3.70;1.00;;;;;;5052535;28;20450;-76
2021/12/26 10:30:44;;;;;;;8.52;5.32;;;3.60;1.00;;;;;;5052302;28;20160;-76
2021/12/26 10:33:13;;;;;;;8.80;5.03;;;3.70;1.00;;;;;;5053687;28;20720;-76
2021/12/26 10:36:04;;;;;;;6.85;4.95;;;3.50;1.00;;;;;;5053880;28;20387;-76
2021/12/26 10:38:30;;;;;;;6.65;4.55;;;3.60;1.00;;;;;;5054039;28;20221;-74
2021/12/26 10:40:56;;;;;;;8.70;3.97;;;3.60;1.00;;;;;;5054287;28;20171;-76
2021/12/26 10:43:21;;;;;;;11.20;5.33;;;3.60;1.00;;;;;;5048845;28;20251;-75
2021/12/26 10:45:47;;;;;;;8.60;4.60;;;3.70;1.00;;;;;;5048439;28;20226;-75
2021/12/26 10:48:12;;;;;;;6.70;4.60;;;3.70;1.00;;;;;;5044596;28;20689;-76
2021/12/26 10:50:40;;;;;;;6.10;4.70;;;3.60;1.00;;;;;;5034729;28;20160;-75
2021/12/26 10:53:11;;;;;;;6.97;4.20;;;3.60;1.00;;;;;;5052467;28;20207;-75
2021/12/26 10:55:43;;;;;;;9.75;5.72;;;3.70;1.00;;;;;;5049486;28;20196;-75
2021/12/26 10:58:11;;;;;;;6.43;4.60;;;3.70;1.00;;;;;;5039990;28;20176;-75
2021/12/26 11:00:42;;;;;;;6.00;4.57;;;3.90;1.00;;;;;;5044427;28;20795;-75
2021/12/26 11:03:28;;;;;;;7.43;4.40;;;3.90;1.00;;;;;;5047307;28;20935;-75
2021/12/26 11:06:20;;;;;;;5.93;4.30;;;3.90;1.00;;;;;;5052990;28;20190;-76
2021/12/26 11:08:46;;;;;;;6.70;4.40;;;3.90;1.00;;;;;;5053487;28;20472;-74
2021/12/26 11:11:17;;;;;;;5.83;4.73;;;4.00;1.00;;;;;;5053574;28;20390;-74
2021/12/26 11:13:44;;;;;;;10.13;4.63;;;3.90;1.00;;;;;;5050989;28;20425;-74
2021/12/26 11:16:15;;;;;;;5.95;4.05;;;4.00;1.00;;;;;;5053003;28;20421;-74
2021/12/26 11:18:53;;;;;;;8.40;5.20;;;4.00;1.00;;;;;;5053405;28;20188;-74
2021/12/26 11:21:23;;;;;;;6.80;4.05;;;4.10;1.00;;;;;;5045689;28;20414;-75
2021/12/26 11:23:49;;;;;;;8.43;5.18;;;4.00;1.00;;;;;;5051731;28;20183;-75
2021/12/26 11:26:17;;;;;;;10.67;4.83;;;4.10;1.00;;;;;;5051959;28;20171;-75
2021/12/26 11:28:46;;;;;;;8.83;5.57;;;4.10;1.00;;;;;;5039200;28;20215;-75
2021/12/26 11:31:18;;;;;;;9.23;5.70;;;4.20;1.00;;;;;;5051254;28;20980;-75
2021/12/26 11:33:54;;;;;;;12.80;5.20;;;5.00;1.00;;;;;;5051733;28;20461;-75
2021/12/26 11:36:20;;;;;;;6.83;4.63;;;4.30;1.00;;;;;;5042924;28;20833;-77
2021/12/26 11:38:47;;;;;;;7.63;5.27;;;4.30;1.00;;;;;;5042715;28;20435;-76
2021/12/26 11:41:25;;;;;;;6.88;4.85;;;4.30;1.00;;;;;;5052642;28;20479;-75
2021/12/26 11:44:31;;;;;;;7.93;4.90;;;4.40;1.00;;;;;;5056143;28;20172;-75
2021/12/26 11:47:15;;;;;;;7.90;5.17;;;4.50;1.00;;;;;;5040660;28;20790;-75
2021/12/26 11:50:08;;;;;;;9.93;5.63;;;4.50;1.00;;;;;;5055266;28;20406;-74
2021/12/26 11:52:58;;;;;;;8.77;5.60;;;4.50;1.00;;;;;;5052693;28;20437;-76
2021/12/26 11:55:55;;;;;;;9.77;4.73;;;4.30;1.00;;;;;;5048160;28;20456;-74
2021/12/26 11:59:04;;;;;;;7.90;4.97;;;4.40;1.00;;;;;;5051211;28;20504;-74
2021/12/26 12:01:49;;;;;;;5.93;4.10;;;4.40;1.00;;;;;;5056423;28;20505;-74
2021/12/26 12:04:23;;;;;;;8.10;5.00;;;4.10;1.00;;;;;;5056020;28;20183;-74
2021/12/26 12:06:54;;;;;;;10.20;5.15;;;4.10;1.00;;;;;;5052313;28;20414;-75
2021/12/26 12:09:46;;;;;;;6.25;5.03;;;4.10;1.00;;;;;;5046021;28;20192;-75
2021/12/26 12:12:15;;;;;;;10.10;5.22;;;4.20;1.00;;;;;;5045472;28;20167;-75
2021/12/26 12:14:54;;;;;;;7.53;5.28;;;4.20;1.00;;;;;;5043528;28;20180;-74
2021/12/26 12:17:29;;;;;;;12.67;5.80;;;4.30;1.00;;;;;;5050519;28;20179;-75
2021/12/26 12:20:21;;;;;;;9.65;5.75;;;4.40;1.00;;;;;;5042872;28;20423;-75
2021/12/26 12:23:04;;;;;;;9.00;5.60;;;4.50;1.00;;;;;;5046573;28;20224;-77
2021/12/26 12:25:50;;;;;;;8.43;5.60;;;4.40;1.00;;;;;;5054192;28;20422;-76
2021/12/26 12:28:25;;;;;;;4.93;4.43;;;4.40;1.00;;;;;;5050958;28;20461;-82
2021/12/26 12:30:58;;;;;;;10.37;5.90;;;4.40;1.00;;;;;;5053479;28;20417;-78
2021/12/26 12:33:28;;;;;;;8.50;5.40;;;4.30;1.00;;;;;;5051738;28;20509;-78
2021/12/26 12:35:54;;;;;;;9.18;5.10;;;;;;;;;;5053430;28;20625;-77
2021/12/26 12:38:34;;;;;;;8.97;5.60;;;4.40;1.00;;;;;;5055128;28;20176;-76
2021/12/26 12:41:02;;;;;;;10.13;5.30;;;4.10;1.00;;;;;;5054671;28;20529;-77
2021/12/26 12:43:28;;;;;;;7.88;5.30;;;4.10;1.00;;;;;;5055002;28;20472;-77
2021/12/26 12:45:55;;;;;;;10.60;5.30;;;;;;;;;;5053224;28;20711;-78
2021/12/26 12:48:29;;;;;;;8.53;5.93;;;4.20;1.00;;;;;;5050528;28;20511;-78
2021/12/26 12:50:59;;;;;;;11.23;4.60;;;4.20;1.00;;;;;;5049077;28;20441;-78
2021/12/26 12:53:55;;;;;;;9.37;5.53;;;4.20;1.00;;;;;;5054792;28;20421;-78
2021/12/26 12:56:30;;;;;;;10.05;5.50;;;4.30;1.00;;;;;;5047876;28;20414;-77
2021/12/26 12:59:17;;;;;;;8.70;5.53;;;4.30;1.00;;;;;;5053980;28;20187;-77
2021/12/26 13:01:47;;;;;;;8.67;5.07;;;4.00;1.00;;;;;;5053065;28;20766;-78
2021/12/26 13:04:15;;;;;;;12.00;5.93;;;4.20;1.00;;;;;;5054433;28;20904;-77
2021/12/26 13:06:52;;;;;;;7.43;4.75;;;3.90;1.00;;;;;;5052191;28;20886;-77
2021/12/26 13:09:18;;;;;;;8.93;5.45;;;4.00;1.00;;;;;;5054705;28;20633;-74
2021/12/26 13:11:50;;;;;;;11.37;6.07;;;4.00;1.00;;;;;;5050211;28;20188;-74
2021/12/26 13:14:34;;;;;;;10.73;6.07;;;3.90;1.00;;;;;;5053670;28;20418;-75
2021/12/26 13:17:01;;;;;;;8.67;5.37;;;3.90;1.00;;;;;;5052993;28;20444;-75
2021/12/26 13:19:26;;;;;;;12.67;5.83;;;3.90;1.00;;;;;;5054188;28;20453;-75
2021/12/26 13:21:57;;;;;;;9.47;6.10;;;3.60;1.00;;;;;;5054057;28;20443;-74
2021/12/26 13:24:32;;;;;;;14.93;5.87;;;3.70;1.00;;;;;;5054080;28;20188;-77
2021/12/26 13:26:59;;;;;;;10.23;5.65;;;3.70;1.00;;;;;;5052239;28;20787;-77
2021/12/26 13:29:24;;;;;;;9.65;5.63;;;3.80;1.00;;;;;;5052621;28;20271;-77
2021/12/26 13:31:50;;;;;;;8.00;5.63;;;3.70;1.00;;;;;;5052250;28;20267;-78
2021/12/26 13:34:19;;;;;;;11.50;6.00;;;3.70;1.00;;;;;;5054090;28;20245;-78
2021/12/26 13:36:47;;;;;;;10.53;5.80;;;3.70;1.00;;;;;;5052759;28;20266;-78
2021/12/26 13:39:21;;;;;;;10.10;6.40;;;3.80;1.00;;;;;;5047942;28;20434;-74
2021/12/26 13:41:49;;;;;;;19.03;6.20;;;3.90;1.00;;;;;;5052988;28;20567;-75
2021/12/26 13:44:15;;;;;;;13.82;6.55;;;;;;;;;;5053546;28;20418;-75
2021/12/26 13:46:41;;;;;;;14.13;6.33;;;;;;;;;;5053018;28;20180;-75
2021/12/26 13:49:09;;;;;;;10.93;6.03;;;4.00;1.00;;;;;;5052454;28;20453;-75
2021/12/26 13:51:41;;;;;;;10.93;6.53;;;3.90;1.00;;;;;;5053439;28;20548;-75
2021/12/26 13:54:22;;;;;;;14.90;6.17;;;3.90;1.00;;;;;;5050043;28;20184;-74
2021/12/26 13:56:48;;;;;;;14.85;6.10;;;3.90;1.00;;;;;;5053231;28;20778;-75
2021/12/26 13:59:38;;;;;;;11.30;6.40;;;3.80;1.00;;;;;;5051274;28;20191;-75
2021/12/26 14:02:08;;;;;;;15.82;6.32;;;3.80;1.00;;;;;;5007380;28;20476;-75
2021/12/26 14:04:42;;;;;;;10.68;6.50;;;3.70;1.00;;;;;;5009171;28;20296;-75
2021/12/26 14:07:10;;;;;;;8.20;5.65;;;3.70;1.00;;;;;;5005212;28;20185;-75
2021/12/26 14:09:38;;;;;;;9.02;5.28;;;3.60;1.00;;;;;;5008076;28;20193;-74
2021/12/26 14:12:04;;;;;;;12.88;6.70;;;3.60;1.00;;;;;;5010937;28;20188;-75
2021/12/26 14:14:32;;;;;;;7.13;5.90;;;3.60;1.00;;;;;;5010836;28;20181;-75
2021/12/26 14:17:05;;;;;;;14.40;6.37;;;3.40;1.00;;;;;;5010721;28;20930;-75
2021/12/26 14:19:31;;;;;;;14.50;7.15;;;3.50;1.00;;;;;;5011377;28;20918;-75
2021/12/26 14:21:57;;;;;;;13.83;7.10;;;3.50;1.00;;;;;;5011216;28;20192;-75